createdAt,value
2022-08-22T00:00:21.932Z,16.14
2022-08-22T00:03:01.812Z,16.09
2022-08-22T00:06:32.371Z,16.11
2022-08-22T00:09:24.797Z,16.11
2022-08-22T00:11:54.391Z,16.13
2022-08-22T00:14:45.816Z,16.13
2022-08-22T00:17:34.428Z,16.09
2022-08-22T00:20:21.632Z,16.10
2022-08-22T00:23:19.402Z,16.10
2022-08-22T00:25:49.025Z,16.10
2022-08-22T00:28:31.983Z,16.10
2022-08-22T00:31:02.971Z,16.12
2022-08-22T00:34:00.816Z,16.15
2022-08-22T00:36:52.371Z,16.12
2022-08-22T00:39:45.339Z,16.13
2022-08-22T00:42:39.555Z,16.12
2022-08-22T00:45:30.373Z,16.14
2022-08-22T00:48:05.680Z,16.11
2022-08-22T00:51:10.489Z,16.14
2022-08-22T00:54:04.552Z,16.09
2022-08-22T00:56:47.395Z,16.12
2022-08-22T00:59:36.214Z,16.04
2022-08-22T01:02:27.786Z,16.13
2022-08-22T01:05:17.170Z,16.13
2022-08-22T01:07:43.948Z,16.16
2022-08-22T01:10:30.908Z,16.16
2022-08-22T01:13:27.871Z,16.13
2022-08-22T01:16:00.591Z,16.04
2022-08-22T01:18:52.291Z,16.13
2022-08-22T01:21:46.350Z,16.07
2022-08-22T01:24:31.681Z,16.05
2022-08-22T01:27:44.780Z,16.03
2022-08-22T01:30:47.069Z,15.99
2022-08-22T01:33:42.576Z,16.06
2022-08-22T01:36:15.367Z,16.06
2022-08-22T01:38:50.688Z,15.99
2022-08-22T01:41:21.766Z,15.98
2022-08-22T01:44:09.950Z,15.96
2022-08-22T01:47:00.112Z,15.96
2022-08-22T01:49:30.093Z,15.96
2022-08-22T01:52:07.807Z,16.04
2022-08-22T01:54:57.810Z,16.06
2022-08-22T01:57:24.870Z,16.02
2022-08-22T01:59:54.629Z,15.99
2022-08-22T02:03:00.188Z,16.07
2022-08-22T02:05:39.951Z,16.06
2022-08-22T02:08:37.690Z,16.03
2022-08-22T02:11:06.113Z,16.04
2022-08-22T02:14:03.375Z,16.04
2022-08-22T02:16:37.591Z,16.03
2022-08-22T02:19:38.968Z,16.02
2022-08-22T02:22:27.808Z,15.93
2022-08-22T02:25:24.831Z,15.97
2022-08-22T02:28:10.968Z,15.94
2022-08-22T02:30:55.114Z,15.93
2022-08-22T02:33:42.965Z,15.93
2022-08-22T02:36:33.152Z,15.94
2022-08-22T02:39:13.660Z,15.94
2022-08-22T02:42:11.790Z,15.97
2022-08-22T02:44:48.054Z,15.91
2022-08-22T02:47:28.496Z,15.84
2022-08-22T02:50:13.094Z,15.83
2022-08-22T02:53:04.653Z,15.78
2022-08-22T02:56:12.950Z,15.66
2022-08-22T02:58:50.718Z,15.49
2022-08-22T03:01:29.821Z,15.49
2022-08-22T03:04:21.670Z,15.47
2022-08-22T03:07:15.146Z,15.46
2022-08-22T03:09:46.847Z,15.43
2022-08-22T03:12:33.649Z,15.60
2022-08-22T03:15:22.249Z,15.65
2022-08-22T03:17:54.266Z,15.67
2022-08-22T03:20:39.833Z,15.65
2022-08-22T03:23:29.191Z,15.67
2022-08-22T03:26:07.391Z,15.55
2022-08-22T03:28:59.877Z,15.50
2022-08-22T03:31:27.998Z,15.39
2022-08-22T03:34:21.568Z,15.41
2022-08-22T03:37:15.310Z,15.36
2022-08-22T03:40:14.228Z,15.22
2022-08-22T03:42:50.088Z,15.27
2022-08-22T03:45:40.732Z,15.28
2022-08-22T03:48:19.272Z,15.34
2022-08-22T03:51:23.631Z,15.37
2022-08-22T03:54:12.199Z,15.39
2022-08-22T03:57:00.561Z,15.39
2022-08-22T03:59:44.348Z,15.39
2022-08-22T04:02:43.783Z,15.45
2022-08-22T04:05:29.751Z,15.53
2022-08-22T04:08:27.014Z,15.58
2022-08-22T04:11:02.456Z,15.66
2022-08-22T04:13:59.627Z,15.75
2022-08-22T04:17:03.673Z,15.85
2022-08-22T04:19:33.508Z,15.92
2022-08-22T04:22:26.328Z,15.98
2022-08-22T04:25:03.618Z,16.01
2022-08-22T04:27:41.509Z,16.09
2022-08-22T04:30:16.389Z,16.18
2022-08-22T04:32:46.371Z,16.24
2022-08-22T04:35:34.589Z,16.32
2022-08-22T04:38:12.170Z,16.43
2022-08-22T04:40:43.571Z,16.47
2022-08-22T04:43:35.297Z,16.70
2022-08-22T04:46:10.811Z,16.82
2022-08-22T04:48:48.057Z,17.04
2022-08-22T04:51:25.935Z,17.28
2022-08-22T04:54:11.503Z,17.55
2022-08-22T04:56:46.217Z,17.75
2022-08-22T04:59:16.564Z,18.05
2022-08-22T05:02:06.404Z,18.28
2022-08-22T05:04:37.417Z,18.56
2022-08-22T05:07:37.686Z,18.87
2022-08-22T05:10:12.157Z,19.00
2022-08-22T05:12:46.789Z,19.05
2022-08-22T05:15:39.169Z,19.12
2022-08-22T05:18:13.708Z,19.10
2022-08-22T05:20:40.708Z,19.37
2022-08-22T05:23:29.348Z,19.38
2022-08-22T05:26:00.111Z,19.58
2022-08-22T05:28:47.569Z,19.71
2022-08-22T05:31:57.478Z,19.97
2022-08-22T05:34:26.271Z,20.26
2022-08-22T05:36:56.751Z,20.26
2022-08-22T05:39:25.521Z,20.23
2022-08-22T05:41:56.087Z,20.24
2022-08-22T05:44:28.275Z,20.31
2022-08-22T05:47:24.071Z,20.37
2022-08-22T05:50:09.019Z,20.36
2022-08-22T05:52:54.468Z,20.35
2022-08-22T05:55:28.951Z,20.30
2022-08-22T05:58:25.230Z,20.34
2022-08-22T06:01:20.943Z,20.38
2022-08-22T06:04:12.657Z,20.32
2022-08-22T06:06:44.367Z,20.26
2022-08-22T06:09:21.508Z,20.43
2022-08-22T06:11:56.687Z,21.11
2022-08-22T06:14:46.488Z,22.13
2022-08-22T06:17:17.459Z,22.59
2022-08-22T06:19:49.774Z,22.38
2022-08-22T06:22:21.955Z,22.14
2022-08-22T06:24:48.831Z,21.96
2022-08-22T06:27:16.429Z,21.85
2022-08-22T06:29:49.392Z,21.77
2022-08-22T06:32:27.895Z,21.78
2022-08-22T06:35:28.952Z,22.02
2022-08-22T06:37:59.245Z,22.65
2022-08-22T06:40:26.518Z,22.75
2022-08-22T06:42:53.368Z,22.88
2022-08-22T06:45:29.258Z,22.98
2022-08-22T06:48:00.967Z,22.64
2022-08-22T06:50:33.751Z,22.52
2022-08-22T06:53:12.893Z,22.67
2022-08-22T06:55:41.268Z,23.04
2022-08-22T06:58:14.048Z,23.34
2022-08-22T07:00:41.870Z,23.26
2022-08-22T07:03:14.072Z,23.18
2022-08-22T07:05:41.586Z,23.20
2022-08-22T07:08:10.934Z,22.97
2022-08-22T07:10:43.718Z,22.49
2022-08-22T07:13:16.977Z,22.46
2022-08-22T07:15:43.829Z,22.37
2022-08-22T07:18:19.789Z,22.23
2022-08-22T07:20:54.974Z,22.34
2022-08-22T07:23:31.880Z,22.24
2022-08-22T07:26:18.433Z,22.46
2022-08-22T07:28:58.389Z,22.28
2022-08-22T07:31:38.653Z,21.92
2022-08-22T07:34:23.153Z,22.09
2022-08-22T07:37:20.531Z,22.05
2022-08-22T07:40:15.378Z,22.28
2022-08-22T07:42:52.045Z,23.08
2022-08-22T07:45:57.548Z,23.66
2022-08-22T07:48:30.331Z,23.68
2022-08-22T07:51:04.846Z,23.33
2022-08-22T07:53:36.730Z,22.89
2022-08-22T07:56:04.608Z,22.68
2022-08-22T07:58:33.965Z,22.75
2022-08-22T08:01:00.950Z,22.85
2022-08-22T08:03:28.911Z,22.81
2022-08-22T08:05:55.848Z,22.82
2022-08-22T08:08:25.948Z,22.92
2022-08-22T08:10:54.673Z,22.89
2022-08-22T08:13:27.717Z,22.73
2022-08-22T08:15:54.656Z,22.55
2022-08-22T08:18:23.602Z,22.49
2022-08-22T08:20:58.447Z,22.46
2022-08-22T08:23:25.374Z,22.62
2022-08-22T08:25:55.827Z,22.90
2022-08-22T08:28:34.793Z,23.03
2022-08-22T08:31:21.884Z,23.22
2022-08-22T08:33:50.429Z,23.19
2022-08-22T08:36:38.228Z,23.28
2022-08-22T08:39:15.731Z,23.34
2022-08-22T08:42:10.282Z,23.39
2022-08-22T08:45:07.893Z,23.69
2022-08-22T08:47:45.709Z,23.98
2022-08-22T08:50:45.790Z,24.09
2022-08-22T08:53:51.214Z,24.11
2022-08-22T08:56:55.491Z,24.24
2022-08-22T08:59:44.178Z,25.26
2022-08-22T09:02:48.933Z,27.70
2022-08-22T09:05:55.044Z,28.34
2022-08-22T09:08:44.595Z,27.44
2022-08-22T09:12:01.593Z,28.46
2022-08-22T09:14:38.167Z,29.00
2022-08-22T09:17:19.930Z,27.93
2022-08-22T09:19:48.127Z,26.47
2022-08-22T09:22:52.631Z,26.51
2022-08-22T09:25:39.228Z,26.49
2022-08-22T09:28:32.501Z,25.65
2022-08-22T09:31:02.736Z,25.29
2022-08-22T09:34:24.073Z,25.10
2022-08-22T09:37:04.638Z,25.09
2022-08-22T09:39:38.291Z,24.87
2022-08-22T09:42:11.769Z,24.86
2022-08-22T09:44:56.751Z,24.82
2022-08-22T09:47:33.765Z,24.86
2022-08-22T09:50:08.806Z,25.11
2022-08-22T09:53:13.989Z,24.84
2022-08-22T09:56:01.129Z,24.34
2022-08-22T09:58:49.708Z,24.32
2022-08-22T10:01:25.303Z,24.26
2022-08-22T10:04:21.567Z,24.08
2022-08-22T10:07:30.330Z,24.19
2022-08-22T10:10:07.061Z,24.13
2022-08-22T10:12:41.922Z,24.10
2022-08-22T10:15:17.087Z,24.16
2022-08-22T10:18:07.733Z,24.23
2022-08-22T10:20:50.028Z,24.37
2022-08-22T10:23:25.668Z,24.55
2022-08-22T10:26:08.147Z,24.92
2022-08-22T10:28:49.656Z,25.19
2022-08-22T10:31:52.730Z,25.43
2022-08-22T10:34:39.131Z,25.66
2022-08-22T10:37:25.434Z,25.67
2022-08-22T10:40:01.014Z,25.61
2022-08-22T10:42:36.758Z,25.62
2022-08-22T10:45:35.927Z,25.62
2022-08-22T10:48:08.872Z,25.56
2022-08-22T10:50:50.954Z,25.12
2022-08-22T10:53:38.394Z,25.00
2022-08-22T10:56:05.194Z,25.09
2022-08-22T10:58:33.415Z,25.27
2022-08-22T11:01:02.453Z,25.59
2022-08-22T11:03:59.624Z,25.68
2022-08-22T11:06:33.160Z,25.32
2022-08-22T11:09:06.087Z,25.14
2022-08-22T11:12:11.134Z,25.01
2022-08-22T11:14:57.403Z,24.75
2022-08-22T11:17:40.699Z,24.52
2022-08-22T11:20:40.143Z,24.19
2022-08-22T11:23:20.478Z,24.28
2022-08-22T11:25:55.155Z,24.27
2022-08-22T11:28:33.107Z,24.19
2022-08-22T11:31:27.850Z,24.24
2022-08-22T11:34:17.531Z,24.54
2022-08-22T11:36:50.303Z,24.88
2022-08-22T11:39:35.792Z,25.05
2022-08-22T11:42:12.032Z,25.10
2022-08-22T11:44:59.891Z,25.08
2022-08-22T11:47:31.431Z,24.92
2022-08-22T11:50:16.028Z,24.82
2022-08-22T11:53:15.532Z,24.95
2022-08-22T11:56:05.527Z,24.78
2022-08-22T11:58:55.850Z,24.78
2022-08-22T12:01:34.407Z,24.66
2022-08-22T12:04:12.774Z,24.60
2022-08-22T12:06:45.832Z,24.50
2022-08-22T12:09:21.185Z,24.74
2022-08-22T12:12:11.205Z,24.70
2022-08-22T12:15:02.130Z,24.80
2022-08-22T12:18:19.998Z,24.71
2022-08-22T12:21:09.924Z,24.75
2022-08-22T12:24:06.128Z,24.59
2022-08-22T12:26:51.691Z,24.49
2022-08-22T12:29:55.975Z,24.47
2022-08-22T12:32:53.357Z,24.54
2022-08-22T12:35:29.748Z,24.61
2022-08-22T12:38:02.570Z,24.31
2022-08-22T12:40:57.346Z,24.08
2022-08-22T12:43:42.658Z,23.89
2022-08-22T12:46:38.009Z,24.02
2022-08-22T12:49:14.072Z,24.14
2022-08-22T12:51:44.278Z,24.15
2022-08-22T12:54:38.114Z,24.22
2022-08-22T12:57:30.431Z,24.23
2022-08-22T13:00:04.421Z,24.15
2022-08-22T13:02:33.297Z,23.95
2022-08-22T13:05:22.322Z,23.89
2022-08-22T13:08:17.595Z,23.74
2022-08-22T13:10:58.474Z,23.75
2022-08-22T13:13:56.717Z,23.88
2022-08-22T13:16:24.708Z,24.08
2022-08-22T13:18:54.234Z,24.24
2022-08-22T13:21:31.690Z,24.16
2022-08-22T13:24:11.950Z,24.10
2022-08-22T13:26:58.120Z,23.73
2022-08-22T13:29:49.991Z,23.66
2022-08-22T13:32:23.542Z,23.50
2022-08-22T13:34:55.116Z,23.32
2022-08-22T13:37:24.854Z,23.18
2022-08-22T13:39:55.397Z,22.90
2022-08-22T13:42:30.877Z,22.80
2022-08-22T13:44:59.856Z,22.74
2022-08-22T13:47:31.850Z,22.72
2022-08-22T13:50:06.787Z,22.76
2022-08-22T13:52:56.276Z,22.72
2022-08-22T13:55:30.130Z,22.57
2022-08-22T13:58:25.154Z,22.56
2022-08-22T14:01:29.420Z,22.61
2022-08-22T14:03:59.462Z,22.67
2022-08-22T14:06:43.792Z,22.71
2022-08-22T14:09:29.550Z,22.69
2022-08-22T14:12:23.551Z,22.61
2022-08-22T14:14:56.148Z,22.73
2022-08-22T14:17:45.057Z,22.75
2022-08-22T14:20:32.694Z,22.57
2022-08-22T14:23:04.710Z,22.42
2022-08-22T14:25:35.307Z,22.25
2022-08-22T14:28:06.439Z,22.03
2022-08-22T14:30:54.379Z,21.90
2022-08-22T14:33:46.090Z,21.80
2022-08-22T14:36:22.514Z,21.75
2022-08-22T14:38:56.470Z,21.62
2022-08-22T14:41:23.428Z,21.58
2022-08-22T14:43:59.870Z,21.56
2022-08-22T14:46:36.769Z,21.55
2022-08-22T14:49:18.729Z,21.51
2022-08-22T14:52:00.333Z,21.45
2022-08-22T14:54:30.795Z,21.42
2022-08-22T14:56:59.224Z,21.38
2022-08-22T14:59:44.301Z,21.35
2022-08-22T15:02:16.889Z,21.28
2022-08-22T15:04:46.759Z,21.28
2022-08-22T15:07:24.682Z,21.33
2022-08-22T15:10:20.764Z,21.39
2022-08-22T15:12:54.014Z,21.33
2022-08-22T15:15:49.705Z,21.34
2022-08-22T15:18:30.130Z,21.35
2022-08-22T15:21:08.735Z,21.31
2022-08-22T15:23:44.854Z,21.26
2022-08-22T15:26:23.166Z,21.10
2022-08-22T15:29:23.437Z,21.18
2022-08-22T15:31:51.508Z,21.20
2022-08-22T15:34:42.011Z,21.20
2022-08-22T15:37:18.092Z,21.20
2022-08-22T15:40:08.381Z,21.24
2022-08-22T15:42:49.133Z,21.12
2022-08-22T15:45:37.428Z,21.10
2022-08-22T15:48:33.990Z,21.00
2022-08-22T15:51:10.341Z,20.95
2022-08-22T15:54:00.629Z,20.92
2022-08-22T15:56:29.731Z,20.86
2022-08-22T15:59:53.694Z,20.84
2022-08-22T16:02:27.930Z,20.77
2022-08-22T16:05:36.178Z,20.72
2022-08-22T16:08:24.567Z,20.67
2022-08-22T16:10:56.890Z,20.67
2022-08-22T16:13:26.648Z,20.66
2022-08-22T16:16:11.241Z,20.68
2022-08-22T16:18:39.311Z,20.69
2022-08-22T16:21:13.492Z,20.75
2022-08-22T16:23:56.771Z,20.72
2022-08-22T16:26:24.172Z,20.59
2022-08-22T16:28:58.555Z,20.60
2022-08-22T16:31:28.920Z,20.56
2022-08-22T16:33:57.346Z,20.50
2022-08-22T16:36:41.553Z,20.46
2022-08-22T16:39:24.569Z,20.46
2022-08-22T16:42:12.993Z,20.41
2022-08-22T16:45:02.271Z,20.35
2022-08-22T16:47:40.291Z,20.37
2022-08-22T16:50:19.491Z,20.32
2022-08-22T16:53:06.853Z,20.24
2022-08-22T16:55:36.315Z,20.22
2022-08-22T16:58:32.476Z,20.20
2022-08-22T17:01:14.529Z,20.21
2022-08-22T17:04:19.033Z,20.18
2022-08-22T17:07:10.731Z,20.18
2022-08-22T17:10:10.266Z,20.11
2022-08-22T17:12:55.606Z,20.07
2022-08-22T17:15:45.212Z,20.05
2022-08-22T17:18:22.113Z,19.99
2022-08-22T17:20:59.353Z,19.88
2022-08-22T17:23:42.596Z,19.86
2022-08-22T17:26:48.490Z,19.90
2022-08-22T17:29:28.135Z,19.89
2022-08-22T17:31:56.845Z,19.84
2022-08-22T17:35:01.968Z,19.84
2022-08-22T17:37:59.624Z,19.76
2022-08-22T17:40:45.227Z,19.83
2022-08-22T17:43:49.752Z,19.82
2022-08-22T17:46:38.371Z,19.79
2022-08-22T17:49:29.981Z,19.72
2022-08-22T17:52:18.304Z,19.60
2022-08-22T17:55:08.191Z,19.60
2022-08-22T17:57:44.807Z,19.53
2022-08-22T18:00:19.160Z,19.47
2022-08-22T18:02:56.450Z,19.42
2022-08-22T18:05:28.147Z,19.31
2022-08-22T18:08:04.111Z,19.30
2022-08-22T18:10:47.163Z,19.26
2022-08-22T18:13:33.733Z,19.21
2022-08-22T18:16:23.932Z,19.14
2022-08-22T18:19:02.302Z,19.03
2022-08-22T18:22:07.680Z,19.03
2022-08-22T18:25:05.432Z,18.90
2022-08-22T18:27:37.373Z,18.90
2022-08-22T18:30:36.720Z,18.92
2022-08-22T18:33:38.171Z,18.83
2022-08-22T18:36:21.745Z,18.89
2022-08-22T18:38:55.772Z,18.86
2022-08-22T18:41:27.782Z,18.84
2022-08-22T18:43:55.085Z,18.84
2022-08-22T18:46:44.023Z,18.80
2022-08-22T18:49:23.172Z,18.71
2022-08-22T18:52:09.268Z,18.59
2022-08-22T18:54:42.023Z,18.47
2022-08-22T18:57:47.613Z,18.36
2022-08-22T19:00:35.648Z,18.31
2022-08-22T19:03:13.690Z,18.30
2022-08-22T19:06:05.672Z,18.38
2022-08-22T19:08:42.820Z,18.36
2022-08-22T19:11:36.797Z,18.46
2022-08-22T19:14:49.036Z,18.49
2022-08-22T19:17:34.213Z,18.42
2022-08-22T19:20:27.919Z,18.32
2022-08-22T19:23:15.123Z,18.22
2022-08-22T19:26:20.035Z,18.15
2022-08-22T19:28:46.919Z,18.18
2022-08-22T19:31:44.279Z,18.21
2022-08-22T19:34:29.505Z,18.32
2022-08-22T19:37:33.359Z,18.24
2022-08-22T19:40:09.399Z,18.18
2022-08-22T19:42:38.328Z,18.11
2022-08-22T19:45:09.552Z,18.23
2022-08-22T19:47:38.677Z,18.29
2022-08-22T19:50:22.181Z,18.41
2022-08-22T19:53:07.671Z,18.43
2022-08-22T19:55:37.334Z,18.39
2022-08-22T19:58:31.822Z,18.43
2022-08-22T20:01:25.991Z,18.50
2022-08-22T20:04:03.689Z,18.42
2022-08-22T20:06:52.021Z,18.51
2022-08-22T20:09:46.007Z,18.42
2022-08-22T20:12:33.866Z,18.38
2022-08-22T20:15:11.282Z,18.43
2022-08-22T20:17:39.837Z,18.57
2022-08-22T20:20:17.241Z,18.53
2022-08-22T20:22:48.803Z,18.60
2022-08-22T20:25:42.243Z,18.59
2022-08-22T20:28:36.680Z,18.59
2022-08-22T20:31:06.579Z,18.51
2022-08-22T20:33:36.058Z,18.36
2022-08-22T20:36:06.137Z,18.17
2022-08-22T20:38:56.030Z,18.22
2022-08-22T20:41:29.071Z,18.24
2022-08-22T20:44:16.599Z,18.24
2022-08-22T20:47:04.574Z,18.20
2022-08-22T20:49:37.721Z,18.06
2022-08-22T20:52:08.251Z,18.10
2022-08-22T20:54:38.109Z,18.11
2022-08-22T20:57:13.942Z,18.15
2022-08-22T20:59:42.307Z,18.08
2022-08-22T21:02:48.889Z,18.00
2022-08-22T21:05:16.267Z,18.02
2022-08-22T21:07:44.951Z,18.10
2022-08-22T21:10:40.131Z,18.28
2022-08-22T21:13:12.772Z,18.42
2022-08-22T21:15:44.649Z,18.60
2022-08-22T21:18:23.227Z,18.65
2022-08-22T21:20:50.713Z,18.59
2022-08-22T21:23:17.687Z,18.58
2022-08-22T21:25:57.977Z,18.61
2022-08-22T21:28:42.261Z,18.63
2022-08-22T21:31:19.669Z,18.74
2022-08-22T21:33:48.789Z,18.70
2022-08-22T21:36:18.378Z,18.72
2022-08-22T21:38:54.492Z,18.78
2022-08-22T21:41:41.175Z,18.99
2022-08-22T21:44:34.011Z,19.04
2022-08-22T21:47:31.060Z,19.13
2022-08-22T21:50:25.874Z,19.15
2022-08-22T21:52:55.415Z,19.13
2022-08-22T21:55:22.130Z,19.10
2022-08-22T21:58:01.400Z,19.03
2022-08-22T22:00:48.908Z,18.99
2022-08-22T22:03:18.116Z,19.04
2022-08-22T22:05:44.882Z,19.13
2022-08-22T22:08:11.741Z,19.11
2022-08-22T22:10:39.767Z,19.07
2022-08-22T22:13:06.710Z,19.14
2022-08-22T22:15:36.899Z,19.10
2022-08-22T22:18:05.182Z,19.11
2022-08-22T22:20:32.016Z,19.20
2022-08-22T22:22:58.927Z,19.26
2022-08-22T22:25:39.738Z,19.24
2022-08-22T22:28:17.106Z,19.17
2022-08-22T22:30:44.289Z,19.19
2022-08-22T22:33:11.148Z,19.19
2022-08-22T22:35:39.267Z,19.14
2022-08-22T22:38:06.567Z,19.20
2022-08-22T22:40:33.454Z,19.19
2022-08-22T22:43:00.266Z,19.14
2022-08-22T22:45:27.066Z,19.08
2022-08-22T22:47:53.886Z,19.16
2022-08-22T22:50:20.694Z,19.20
2022-08-22T22:52:47.486Z,19.20
2022-08-22T22:55:24.126Z,19.14
2022-08-22T22:57:58.950Z,19.07
2022-08-22T23:00:29.019Z,19.10
2022-08-22T23:02:58.768Z,19.10
2022-08-22T23:05:25.515Z,19.08
2022-08-22T23:07:52.309Z,19.03
2022-08-22T23:10:22.132Z,19.00
2022-08-22T23:12:49.200Z,18.94
2022-08-22T23:15:16.815Z,18.86
2022-08-22T23:17:43.848Z,18.73
2022-08-22T23:20:10.853Z,18.71
2022-08-22T23:22:37.600Z,18.60
2022-08-22T23:25:05.192Z,18.50
2022-08-22T23:27:32.181Z,18.51
2022-08-22T23:29:59.147Z,18.39
2022-08-22T23:32:25.956Z,18.30
2022-08-22T23:34:53.459Z,18.14
2022-08-22T23:37:20.949Z,18.13
2022-08-22T23:39:47.823Z,18.17
2022-08-22T23:42:15.378Z,18.16
2022-08-22T23:44:42.479Z,18.11
2022-08-22T23:47:09.548Z,18.20
2022-08-22T23:49:36.576Z,18.15
2022-08-22T23:52:04.542Z,18.14
2022-08-22T23:54:31.327Z,18.10
2022-08-22T23:57:00.619Z,18.18
2022-08-22T23:59:34.094Z,18.17
